Time;durP1;ratioP1;P1;durP2;ratioP2;P2;SDS_P1;SDS_P2;PMS_P1;PMS_P2;Temp;Humidity;BMP_temperature;BMP_pressure;BME280_temperature;BME280_humidity;BME280_pressure;Samples;Min_cycle;Max_cycle;Signal;HPM_P1;HPM_P2
2022/02/25 00:02:19;;;;;;;1.42;0.65;;;4.00;99.90;;;;;;4975538;28;20039;-78
2022/02/25 00:04:44;;;;;;;3.08;0.70;;;3.90;99.90;;;;;;4975904;28;20519;-78
2022/02/25 00:07:10;;;;;;;2.35;0.55;;;3.90;99.90;;;;;;4975456;28;20031;-79
2022/02/25 00:09:36;;;;;;;1.80;0.60;;;3.60;99.90;;;;;;4975325;28;20076;-78
2022/02/25 00:12:02;;;;;;;2.30;0.75;;;3.70;99.90;;;;;;4975786;28;20391;-78
2022/02/25 00:14:27;;;;;;;1.48;0.60;;;3.60;99.90;;;;;;4975859;28;20086;-78
2022/02/25 00:16:53;;;;;;;3.92;0.88;;;3.50;99.90;;;;;;4975979;28;20031;-78
2022/02/25 00:19:18;;;;;;;2.60;0.88;;;3.80;99.90;;;;;;4975205;28;20109;-77
2022/02/25 00:21:45;;;;;;;1.30;0.50;;;3.70;99.90;;;;;;4971398;28;20031;-78
2022/02/25 00:24:11;;;;;;;3.67;0.65;;;3.90;99.90;;;;;;4971672;28;20120;-77
2022/02/25 00:26:36;;;;;;;2.58;0.80;;;3.60;99.90;;;;;;4971435;28;20031;-77
2022/02/25 00:29:06;;;;;;;3.53;0.50;;;3.70;99.90;;;;;;4970668;28;20035;-77
2022/02/25 00:31:32;;;;;;;3.83;0.88;;;3.50;99.90;;;;;;4971778;28;20361;-78
2022/02/25 00:33:57;;;;;;;1.77;0.55;;;3.60;99.90;;;;;;4955256;28;20033;-78
2022/02/25 00:36:24;;;;;;;1.02;0.40;;;3.40;99.90;;;;;;4972065;28;20023;-79
2022/02/25 00:38:50;;;;;;;4.88;0.63;;;3.60;99.90;;;;;;4974739;28;20063;-78
2022/02/25 00:41:15;;;;;;;2.08;0.55;;;3.50;99.90;;;;;;4975684;28;20460;-78
2022/02/25 00:43:41;;;;;;;2.92;0.50;;;4.10;99.90;;;;;;4975550;28;20054;-78
2022/02/25 00:46:07;;;;;;;1.75;0.65;;;3.60;99.90;;;;;;4977949;28;20035;-78
2022/02/25 00:48:32;;;;;;;2.65;0.63;;;3.40;99.90;;;;;;4971295;28;20035;-78
2022/02/25 00:50:58;;;;;;;2.80;0.70;;;3.40;99.90;;;;;;4971709;28;20278;-78
2022/02/25 00:53:23;;;;;;;2.45;0.70;;;3.30;99.90;;;;;;4971593;28;20526;-78
2022/02/25 00:55:49;;;;;;;3.63;0.60;;;3.40;99.90;;;;;;4971835;28;20026;-78
2022/02/25 00:58:15;;;;;;;1.00;0.50;;;3.00;99.90;;;;;;4971711;28;20030;-78
2022/02/25 01:00:41;;;;;;;1.83;0.45;;;2.60;99.90;;;;;;4971512;28;20042;-78
2022/02/25 01:03:06;;;;;;;1.30;0.40;;;3.10;99.90;;;;;;4972486;28;20054;-78
2022/02/25 01:05:33;;;;;;;2.70;0.43;;;3.20;99.90;;;;;;4972863;28;20050;-78
2022/02/25 01:08:06;;;;;;;4.28;0.77;;;2.80;99.90;;;;;;4972970;28;20053;-78
2022/02/25 01:10:33;;;;;;;3.42;0.65;;;3.00;99.90;;;;;;4972182;28;20030;-78
2022/02/25 01:12:59;;;;;;;4.60;0.57;;;3.10;99.90;;;;;;4972208;28;20390;-78
2022/02/25 01:15:24;;;;;;;2.97;0.52;;;3.00;99.90;;;;;;4974765;28;20054;-78
2022/02/25 01:17:50;;;;;;;3.25;1.17;;;2.90;99.90;;;;;;4941124;28;20034;-78
2022/02/25 01:20:17;;;;;;;6.47;1.08;;;3.00;99.90;;;;;;4973594;28;20084;-78
2022/02/25 01:22:44;;;;;;;2.17;0.40;;;3.10;99.90;;;;;;4973148;28;20059;-78
2022/02/25 01:25:10;;;;;;;3.85;0.90;;;3.20;99.90;;;;;;4974525;28;20055;-78
2022/02/25 01:27:36;;;;;;;4.75;0.60;;;4.60;99.90;;;;;;4973485;28;20087;-78
2022/02/25 01:30:04;;;;;;;3.28;1.27;;;3.10;99.90;;;;;;4972575;28;20113;-78
2022/02/25 01:32:29;;;;;;;2.20;0.40;;;3.00;99.90;;;;;;4974552;28;20423;-78
2022/02/25 01:34:56;;;;;;;5.25;0.75;;;2.90;99.90;;;;;;4973973;28;20084;-78
2022/02/25 01:37:21;;;;;;;2.58;0.70;;;2.90;99.90;;;;;;4974335;28;20391;-78
2022/02/25 01:39:47;;;;;;;4.32;0.55;;;3.00;99.90;;;;;;4956094;28;20027;-78
2022/02/25 01:42:13;;;;;;;4.60;0.68;;;2.80;99.90;;;;;;4973033;28;20084;-78
2022/02/25 01:44:41;;;;;;;4.07;0.90;;;3.90;99.90;;;;;;4973465;28;20492;-78
2022/02/25 01:47:08;;;;;;;3.13;0.65;;;4.20;99.90;;;;;;4973249;28;20458;-79
2022/02/25 01:49:34;;;;;;;3.28;0.60;;;2.80;99.90;;;;;;4972091;28;20038;-79
2022/02/25 01:52:03;;;;;;;3.17;0.80;;;2.80;99.90;;;;;;4956305;28;20023;-79
2022/02/25 01:54:30;;;;;;;7.93;0.90;;;2.80;99.90;;;;;;4973645;28;20061;-79
2022/02/25 01:56:57;;;;;;;3.58;0.70;;;2.90;99.90;;;;;;4973402;28;20068;-79
2022/02/25 01:59:23;;;;;;;1.60;0.50;;;2.60;99.90;;;;;;4955100;28;20031;-79
2022/02/25 02:01:49;;;;;;;3.80;0.80;;;2.80;99.90;;;;;;4973154;28;20121;-79
2022/02/25 02:04:15;;;;;;;4.15;1.02;;;2.80;99.90;;;;;;4972863;28;20104;-79
2022/02/25 02:06:40;;;;;;;7.22;1.08;;;2.70;99.90;;;;;;4973343;28;20506;-79
2022/02/25 02:09:07;;;;;;;7.32;0.63;;;2.80;99.90;;;;;;4972174;28;20034;-79
2022/02/25 02:11:36;;;;;;;5.03;0.85;;;2.80;99.90;;;;;;4956292;28;20039;-79
2022/02/25 02:14:05;;;;;;;2.92;0.60;;;2.80;99.90;;;;;;4973241;28;20061;-79
2022/02/25 02:16:31;;;;;;;11.63;0.90;;;3.70;99.90;;;;;;4973636;28;20038;-79
2022/02/25 02:19:00;;;;;;;5.95;0.98;;;2.40;99.90;;;;;;4972386;28;20031;-79
2022/02/25 02:21:28;;;;;;;5.03;0.85;;;3.00;99.90;;;;;;4973228;28;20050;-79
2022/02/25 02:23:55;;;;;;;4.13;0.93;;;2.40;99.90;;;;;;4973964;28;20050;-79
2022/02/25 02:26:21;;;;;;;4.03;0.80;;;2.10;99.90;;;;;;4972998;28;20086;-79
2022/02/25 02:28:48;;;;;;;5.90;0.70;;;2.20;99.90;;;;;;4972422;28;20039;-79
2022/02/25 02:31:14;;;;;;;1.95;0.60;;;2.30;99.90;;;;;;4976382;28;20054;-79
2022/02/25 02:33:40;;;;;;;4.05;0.73;;;2.10;99.90;;;;;;4977831;28;20105;-79
2022/02/25 02:36:07;;;;;;;7.68;0.98;;;2.00;99.90;;;;;;4978904;28;20027;-79
2022/02/25 02:38:33;;;;;;;5.70;0.85;;;1.80;99.90;;;;;;4977028;28;20034;-79
2022/02/25 02:40:59;;;;;;;4.28;0.60;;;1.90;99.90;;;;;;4976630;28;20046;-79
2022/02/25 02:43:24;;;;;;;1.90;0.40;;;1.70;99.90;;;;;;4976384;28;20498;-79
2022/02/25 02:45:51;;;;;;;2.90;1.10;;;2.00;99.90;;;;;;4976781;28;20081;-79
2022/02/25 02:48:17;;;;;;;2.35;0.65;;;2.00;99.90;;;;;;4976838;28;20030;-79
2022/02/25 02:50:43;;;;;;;3.15;0.60;;;2.00;99.90;;;;;;4976573;28;20728;-79
2022/02/25 02:53:09;;;;;;;2.92;0.47;;;1.80;99.90;;;;;;4977511;28;20059;-79
2022/02/25 02:55:35;;;;;;;2.78;1.08;;;1.60;99.90;;;;;;4977462;28;20027;-78
2022/02/25 02:58:00;;;;;;;2.40;0.77;;;1.80;99.90;;;;;;4975766;28;20027;-78
2022/02/25 03:00:26;;;;;;;5.40;1.35;;;1.80;99.90;;;;;;4976515;28;20030;-78
2022/02/25 03:02:52;;;;;;;2.80;0.70;;;1.80;99.90;;;;;;4976045;28;20084;-79
2022/02/25 03:05:18;;;;;;;4.70;0.50;;;3.10;99.90;;;;;;4974565;28;20112;-78
2022/02/25 03:07:46;;;;;;;4.63;0.70;;;1.60;99.90;;;;;;4974061;28;20023;-78
2022/02/25 03:10:12;;;;;;;5.07;0.73;;;1.60;99.90;;;;;;4973545;28;20031;-78
2022/02/25 03:12:40;;;;;;;3.95;0.57;;;1.30;99.90;;;;;;4975036;28;20061;-77
2022/02/25 03:15:06;;;;;;;5.90;1.08;;;1.40;99.90;;;;;;4974426;28;20019;-77
2022/02/25 03:17:32;;;;;;;7.20;1.05;;;1.50;99.90;;;;;;4975273;28;20031;-78
2022/02/25 03:19:59;;;;;;;5.65;0.60;;;;;;;;;;4972651;28;20403;-78
2022/02/25 03:22:25;;;;;;;5.30;0.85;;;1.70;99.90;;;;;;4972033;28;20396;-78
2022/02/25 03:24:52;;;;;;;6.55;0.65;;;1.70;99.90;;;;;;4972767;28;20438;-78
2022/02/25 03:27:18;;;;;;;5.75;1.00;;;1.60;99.90;;;;;;4973028;28;20409;-78
2022/02/25 03:29:44;;;;;;;4.45;0.98;;;1.60;99.90;;;;;;4973311;28;20030;-78
2022/02/25 03:32:09;;;;;;;8.60;1.30;;;1.50;99.90;;;;;;4973845;28;20038;-78
2022/02/25 03:34:35;;;;;;;3.95;1.02;;;1.40;99.90;;;;;;4976661;28;20034;-77
2022/02/25 03:37:01;;;;;;;8.27;0.90;;;1.50;99.90;;;;;;4975172;28;20515;-78
2022/02/25 03:39:26;;;;;;;3.30;0.68;;;1.50;99.90;;;;;;4955649;28;20046;-78
2022/02/25 03:41:52;;;;;;;7.70;0.77;;;1.60;99.90;;;;;;4972432;28;20039;-78
2022/02/25 03:44:17;;;;;;;7.07;1.15;;;1.50;99.90;;;;;;4973006;28;20073;-78
2022/02/25 03:46:43;;;;;;;6.00;0.80;;;1.60;99.90;;;;;;4972592;28;20035;-78
2022/02/25 03:49:08;;;;;;;5.95;0.90;;;2.40;99.90;;;;;;4954993;28;20034;-78
2022/02/25 03:51:34;;;;;;;5.78;0.77;;;1.60;99.90;;;;;;4972896;28;20043;-78
2022/02/25 03:54:00;;;;;;;5.90;1.10;;;1.60;99.90;;;;;;4973326;28;20031;-78
2022/02/25 03:56:25;;;;;;;6.93;1.17;;;1.70;99.90;;;;;;4977639;28;20038;-79
2022/02/25 03:58:52;;;;;;;5.28;0.82;;;1.70;99.90;;;;;;4979119;28;20380;-79
2022/02/25 04:01:18;;;;;;;9.35;1.20;;;2.40;99.90;;;;;;4979104;28;20113;-79
2022/02/25 04:03:44;;;;;;;6.32;0.85;;;1.50;99.90;;;;;;4977117;28;20128;-79
2022/02/25 04:06:09;;;;;;;4.35;1.10;;;1.70;99.90;;;;;;4975901;28;20039;-79
2022/02/25 04:08:35;;;;;;;5.53;0.80;;;1.50;99.90;;;;;;4975130;28;20045;-79
2022/02/25 04:11:01;;;;;;;10.73;1.25;;;1.60;99.90;;;;;;4958606;28;20117;-79
2022/02/25 04:13:27;;;;;;;6.47;1.13;;;2.90;99.90;;;;;;4976021;28;20081;-79
2022/02/25 04:15:53;;;;;;;7.07;0.75;;;1.70;99.90;;;;;;4976106;28;20031;-79
2022/02/25 04:18:18;;;;;;;9.45;1.20;;;1.70;99.90;;;;;;4976017;28;20031;-79
2022/02/25 04:20:44;;;;;;;6.90;1.50;;;1.50;99.90;;;;;;4975045;28;20035;-79
2022/02/25 04:23:09;;;;;;;8.30;2.00;;;1.60;99.90;;;;;;4975615;28;20038;-79
2022/02/25 04:25:35;;;;;;;4.55;0.90;;;1.60;99.90;;;;;;4975380;28;20042;-79
2022/02/25 04:28:02;;;;;;;8.30;2.45;;;1.60;99.90;;;;;;4976166;28;20060;-79
2022/02/25 04:30:28;;;;;;;5.65;1.35;;;1.70;99.90;;;;;;4971363;28;20084;-79
2022/02/25 04:32:54;;;;;;;5.88;1.00;;;1.60;99.90;;;;;;4975690;28;20027;-79
2022/02/25 04:35:21;;;;;;;6.55;1.10;;;1.70;99.90;;;;;;4976025;28;20027;-79
2022/02/25 04:37:47;;;;;;;8.45;1.80;;;2.10;99.90;;;;;;4976596;28;20019;-79
2022/02/25 04:40:12;;;;;;;6.68;1.20;;;1.60;99.90;;;;;;4978407;28;20046;-79
2022/02/25 04:42:38;;;;;;;6.35;0.95;;;1.70;99.90;;;;;;4978451;28;20131;-79
2022/02/25 04:45:05;;;;;;;6.20;1.38;;;1.70;99.90;;;;;;4977237;28;20027;-80
2022/02/25 04:47:31;;;;;;;8.30;1.13;;;1.80;99.90;;;;;;4977074;28;20031;-80
2022/02/25 04:49:57;;;;;;;9.98;1.25;;;1.40;99.90;;;;;;4976587;28;20088;-79
2022/02/25 04:52:24;;;;;;;7.45;1.23;;;1.50;99.90;;;;;;4975797;28;20038;-79
2022/02/25 04:54:50;;;;;;;7.88;1.20;;;1.60;99.90;;;;;;4976269;28;20063;-78
2022/02/25 04:57:16;;;;;;;4.20;1.08;;;1.60;99.90;;;;;;4974857;28;20038;-78
2022/02/25 04:59:42;;;;;;;10.05;1.88;;;1.50;99.90;;;;;;4973595;28;20031;-78
2022/02/25 05:02:08;;;;;;;8.20;1.50;;;3.10;99.90;;;;;;4974626;28;20118;-79
2022/02/25 05:04:34;;;;;;;5.88;1.17;;;1.70;99.90;;;;;;4974878;28;20030;-78
2022/02/25 05:06:59;;;;;;;5.63;0.95;;;1.80;99.90;;;;;;4955832;28;20043;-78
2022/02/25 05:09:25;;;;;;;8.75;1.05;;;1.60;99.90;;;;;;4972822;28;20403;-78
2022/02/25 05:11:50;;;;;;;5.75;1.10;;;1.80;99.90;;;;;;4972457;28;20395;-78
2022/02/25 05:22:28;;;;;;;5.55;1.35;;;1.90;99.90;;;;;;4971811;28;20054;-78
2022/02/25 05:24:54;;;;;;;8.07;1.02;;;1.80;99.90;;;;;;4973655;28;20030;-78
2022/02/25 05:27:20;;;;;;;10.98;1.15;;;2.00;99.90;;;;;;4973514;28;20115;-79
2022/02/25 05:29:47;;;;;;;9.85;1.90;;;1.90;99.90;;;;;;4954871;28;20030;-78
2022/02/25 05:32:13;;;;;;;6.40;1.20;;;1.90;99.90;;;;;;4972202;28;20023;-78
2022/02/25 05:34:38;;;;;;;6.07;1.25;;;1.80;99.90;;;;;;4974366;28;20113;-79
2022/02/25 05:37:04;;;;;;;9.13;1.50;;;1.80;99.90;;;;;;4974123;28;20391;-79
2022/02/25 05:39:30;;;;;;;7.05;1.33;;;1.90;99.90;;;;;;4973481;28;20035;-79
2022/02/25 05:41:55;;;;;;;9.52;2.72;;;2.00;99.90;;;;;;4974058;28;20031;-79
2022/02/25 05:44:21;;;;;;;7.78;1.40;;;2.00;99.90;;;;;;4974171;28;20099;-80
2022/02/25 05:46:46;;;;;;;5.13;1.38;;;1.90;99.90;;;;;;4974249;28;20059;-79
2022/02/25 05:49:12;;;;;;;13.30;2.42;;;2.00;99.90;;;;;;4975906;28;20060;-79
2022/02/25 05:51:38;;;;;;;8.07;1.48;;;2.20;99.90;;;;;;4978041;28;20075;-79
2022/02/25 05:54:04;;;;;;;13.27;1.73;;;2.00;99.90;;;;;;4978388;28;20054;-79
2022/02/25 05:56:33;;;;;;;7.88;1.77;;;1.80;99.90;;;;;;4974361;28;20122;-80
2022/02/25 05:58:59;;;;;;;8.15;1.60;;;2.70;99.90;;;;;;4976508;28;20042;-81
2022/02/25 06:01:25;;;;;;;6.60;1.52;;;3.30;99.90;;;;;;4976778;28;20428;-79
2022/02/25 06:03:50;;;;;;;8.98;2.00;;;2.70;99.90;;;;;;4960333;28;20039;-79
2022/02/25 06:06:16;;;;;;;6.95;1.40;;;3.90;99.90;;;;;;4975133;28;20035;-79
2022/02/25 06:08:42;;;;;;;9.02;1.40;;;2.10;99.90;;;;;;4974029;28;20054;-79
2022/02/25 06:11:08;;;;;;;7.72;1.77;;;2.00;99.90;;;;;;4974824;28;20062;-78
2022/02/25 06:13:36;;;;;;;8.02;1.38;;;2.10;99.90;;;;;;4975288;28;20038;-79
2022/02/25 06:16:02;;;;;;;9.50;2.65;;;3.90;99.90;;;;;;4979877;28;20053;-78
2022/02/25 06:18:28;;;;;;;7.22;1.67;;;2.00;99.90;;;;;;4980732;28;20034;-78
2022/02/25 06:20:54;;;;;;;7.82;1.80;;;2.00;99.90;;;;;;4980582;28;20031;-78
2022/02/25 06:23:22;;;;;;;7.45;1.70;;;2.10;99.90;;;;;;4979792;28;20037;-78
2022/02/25 06:25:48;;;;;;;11.15;1.95;;;2.10;99.90;;;;;;4981406;28;20321;-78
2022/02/25 06:28:15;;;;;;;7.25;1.95;;;2.10;99.90;;;;;;4955971;28;20088;-79
2022/02/25 06:30:40;;;;;;;12.75;2.08;;;2.10;99.90;;;;;;4974489;28;20030;-80
2022/02/25 06:33:06;;;;;;;7.10;1.35;;;4.00;99.90;;;;;;4976756;28;20094;-80
2022/02/25 06:35:32;;;;;;;6.18;1.35;;;2.10;99.90;;;;;;4976589;28;20487;-78
2022/02/25 06:37:57;;;;;;;10.80;1.50;;;2.00;99.90;;;;;;4973456;28;20023;-78
2022/02/25 06:40:23;;;;;;;10.82;1.45;;;2.10;99.90;;;;;;4971301;28;20059;-81
2022/02/25 06:42:49;;;;;;;10.55;1.30;;;3.60;99.90;;;;;;4970549;28;20114;-77
2022/02/25 06:45:15;;;;;;;4.68;1.35;;;2.10;99.90;;;;;;4971234;28;20051;-77
2022/02/25 06:47:41;;;;;;;16.13;2.50;;;1.90;99.90;;;;;;4971458;28;20027;-78
2022/02/25 06:50:08;;;;;;;10.38;2.38;;;2.00;99.90;;;;;;4970235;28;20407;-77
2022/02/25 06:52:35;;;;;;;6.15;1.98;;;2.00;99.90;;;;;;4960857;28;20019;-77
2022/02/25 06:55:00;;;;;;;7.18;1.50;;;2.20;99.90;;;;;;4959703;28;20033;-76
2022/02/25 06:57:26;;;;;;;8.43;1.83;;;4.10;99.90;;;;;;4970329;28;20018;-77
2022/02/25 06:59:52;;;;;;;9.57;1.70;;;2.20;99.90;;;;;;4969611;28;20093;-77
2022/02/25 07:02:17;;;;;;;8.55;1.35;;;2.40;99.90;;;;;;4972471;28;20495;-76
2022/02/25 07:04:43;;;;;;;10.10;1.83;;;2.50;99.90;;;;;;4971381;28;20039;-76
2022/02/25 07:07:08;;;;;;;9.98;1.52;;;3.40;99.90;;;;;;4970505;28;20035;-76
2022/02/25 07:09:34;;;;;;;10.40;1.75;;;2.30;99.90;;;;;;4970421;28;20039;-77
2022/02/25 07:12:00;;;;;;;11.63;1.77;;;2.60;99.90;;;;;;4970488;28;20054;-77
2022/02/25 07:14:25;;;;;;;16.60;3.88;;;2.70;99.90;;;;;;4970582;28;20369;-75
2022/02/25 07:16:51;;;;;;;10.45;1.88;;;2.80;99.90;;;;;;4970885;28;20385;-78
2022/02/25 07:19:16;;;;;;;8.77;1.38;;;2.90;99.90;;;;;;4973252;28;20030;-77
2022/02/25 07:21:42;;;;;;;13.80;1.80;;;3.00;99.90;;;;;;4973742;28;20057;-78
2022/02/25 07:24:08;;;;;;;7.82;1.27;;;4.20;99.90;;;;;;4973156;28;20164;-75
2022/02/25 07:26:33;;;;;;;11.25;2.22;;;3.40;99.90;;;;;;4973536;28;20517;-76
2022/02/25 07:28:59;;;;;;;7.28;1.48;;;3.60;99.90;;;;;;4956054;28;20046;-77
2022/02/25 07:31:25;;;;;;;9.85;1.45;;;3.70;99.90;;;;;;4974510;28;20026;-77
2022/02/25 07:33:51;;;;;;;5.25;1.20;;;3.60;99.90;;;;;;4957796;28;20027;-78
2022/02/25 07:36:17;;;;;;;9.60;1.30;;;5.50;99.90;;;;;;4976244;28;20062;-76
2022/02/25 07:38:42;;;;;;;6.22;1.10;;;4.20;99.90;;;;;;4974510;28;20027;-77
2022/02/25 07:41:08;;;;;;;8.32;1.35;;;4.30;99.90;;;;;;4974090;28;20039;-76
2022/02/25 07:43:34;;;;;;;5.38;1.60;;;3.70;99.90;;;;;;4970809;28;20041;-77
2022/02/25 07:45:59;;;;;;;5.40;1.50;;;3.80;99.90;;;;;;4968090;28;20450;-78
2022/02/25 07:48:26;;;;;;;7.45;1.60;;;3.50;99.90;;;;;;4968873;28;20092;-75
2022/02/25 07:50:52;;;;;;;12.18;1.55;;;3.60;99.90;;;;;;4969080;28;20061;-77
2022/02/25 07:53:18;;;;;;;8.35;1.27;;;3.60;99.90;;;;;;4969261;28;20115;-78
2022/02/25 07:55:45;;;;;;;9.32;1.40;;;3.70;99.90;;;;;;4969880;28;20673;-78
2022/02/25 07:58:12;;;;;;;7.43;1.15;;;3.70;99.90;;;;;;4969411;28;20026;-78
2022/02/25 08:00:38;;;;;;;6.10;2.00;;;4.40;99.90;;;;;;4968313;28;20484;-78
2022/02/25 08:03:04;;;;;;;7.30;1.42;;;4.10;99.90;;;;;;4972179;28;20083;-77
2022/02/25 08:05:32;;;;;;;5.35;1.40;;;4.20;99.90;;;;;;4956416;28;20400;-77
2022/02/25 08:08:03;;;;;;;7.22;1.58;;;4.40;99.90;;;;;;4973515;28;20023;-74
2022/02/25 08:10:29;;;;;;;5.25;1.38;;;4.30;99.90;;;;;;4972387;28;20062;-78
2022/02/25 08:12:54;;;;;;;8.23;1.83;;;4.60;99.90;;;;;;4973314;28;20023;-77
2022/02/25 08:15:20;;;;;;;7.05;1.55;;;4.50;99.90;;;;;;4973882;28;20105;-77
2022/02/25 08:17:47;;;;;;;7.07;1.20;;;4.70;99.90;;;;;;4956438;28;20022;-77
2022/02/25 08:20:13;;;;;;;6.75;1.60;;;5.50;99.90;;;;;;4972454;28;20035;-78
2022/02/25 08:22:39;;;;;;;8.57;1.55;;;4.60;99.90;;;;;;4972936;28;20054;-77
2022/02/25 08:25:06;;;;;;;8.43;1.45;;;4.60;99.90;;;;;;4973113;28;20038;-78
2022/02/25 08:27:32;;;;;;;9.77;1.75;;;4.50;99.90;;;;;;4971957;28;20031;-76
2022/02/25 08:29:58;;;;;;;10.43;1.45;;;4.40;99.90;;;;;;4971729;28;20050;-76
2022/02/25 08:32:23;;;;;;;6.93;1.30;;;5.70;99.90;;;;;;4972470;28;20113;-77
2022/02/25 08:34:49;;;;;;;5.40;1.17;;;4.50;99.90;;;;;;4955515;28;20088;-77
2022/02/25 08:37:15;;;;;;;9.10;2.25;;;5.30;99.90;;;;;;4955120;28;20034;-78
2022/02/25 08:39:40;;;;;;;7.70;1.27;;;5.00;99.90;;;;;;4972222;28;20066;-77
2022/02/25 08:42:06;;;;;;;13.52;1.70;;;6.40;99.90;;;;;;4973274;28;20488;-77
2022/02/25 08:44:32;;;;;;;9.70;1.90;;;5.30;99.90;;;;;;4977335;28;20031;-76
2022/02/25 08:46:58;;;;;;;22.90;4.18;;;7.80;99.90;;;;;;4977235;28;20037;-78
2022/02/25 08:49:23;;;;;;;12.15;1.65;;;6.20;99.90;;;;;;4972541;28;20027;-78
2022/02/25 08:51:49;;;;;;;7.03;1.75;;;6.40;99.90;;;;;;4973367;28;20039;-78
2022/02/25 08:54:16;;;;;;;6.38;1.60;;;6.90;99.90;;;;;;4972692;28;20093;-77
2022/02/25 08:56:42;;;;;;;8.68;1.40;;;8.00;99.90;;;;;;4974120;28;20072;-77
2022/02/25 08:59:08;;;;;;;14.10;1.60;;;8.80;99.90;;;;;;4973109;28;20030;-78
2022/02/25 09:01:34;;;;;;;6.43;1.15;;;8.40;99.90;;;;;;4972724;28;20035;-78
2022/02/25 09:04:01;;;;;;;4.07;1.00;;;9.30;99.90;;;;;;4972164;28;20027;-78
2022/02/25 09:06:29;;;;;;;13.27;1.83;;;8.20;99.90;;;;;;4972350;28;20031;-76
2022/02/25 09:08:56;;;;;;;7.13;1.40;;;8.60;99.90;;;;;;4971849;28;20030;-77
2022/02/25 09:11:22;;;;;;;18.33;3.38;;;10.10;99.90;;;;;;4972738;28;20059;-76
2022/02/25 09:13:48;;;;;;;6.13;1.92;;;10.10;99.90;;;;;;4955464;28;20051;-77
2022/02/25 09:16:14;;;;;;;7.00;1.40;;;9.30;99.90;;;;;;4972595;28;20053;-78
2022/02/25 09:18:40;;;;;;;7.47;1.40;;;9.40;99.90;;;;;;4971903;28;20031;-79
2022/02/25 09:21:05;;;;;;;9.35;1.40;;;8.60;99.90;;;;;;4972861;28;20042;-77
2022/02/25 09:23:31;;;;;;;11.88;2.40;;;9.00;99.90;;;;;;4972005;28;20043;-78
2022/02/25 09:25:58;;;;;;;6.72;1.77;;;8.50;99.90;;;;;;4973138;28;20037;-78
2022/02/25 09:28:24;;;;;;;11.48;1.70;;;10.00;99.90;;;;;;4971927;28;20399;-78
2022/02/25 09:30:54;;;;;;;8.13;1.40;;;9.00;99.90;;;;;;4972208;28;20494;-77
2022/02/25 09:33:20;;;;;;;7.40;1.40;;;8.20;99.90;;;;;;4972671;28;20027;-75
2022/02/25 09:35:45;;;;;;;10.75;1.48;;;7.90;99.90;;;;;;4972704;28;20081;-78
2022/02/25 09:38:12;;;;;;;13.40;2.13;;;8.70;99.90;;;;;;4955399;28;20400;-78
2022/02/25 09:40:38;;;;;;;10.35;1.92;;;7.80;99.90;;;;;;4972704;28;20495;-78
2022/02/25 09:43:05;;;;;;;8.95;1.70;;;7.10;99.90;;;;;;4957089;28;20129;-78
2022/02/25 09:45:32;;;;;;;7.93;1.52;;;6.80;99.90;;;;;;4975043;28;20043;-78
2022/02/25 09:47:57;;;;;;;7.43;1.40;;;7.00;99.90;;;;;;4974196;28;20019;-78
2022/02/25 09:50:25;;;;;;;15.77;2.25;;;8.00;99.90;;;;;;4953203;28;20388;-78
2022/02/25 09:52:52;;;;;;;6.75;1.27;;;6.60;99.90;;;;;;4974708;28;20026;-78
2022/02/25 09:55:30;;;;;;;12.40;2.00;;;6.70;99.90;;;;;;4975925;28;20495;-78
2022/02/25 09:58:00;;;;;;;9.02;1.83;;;6.50;99.90;;;;;;4964921;28;20049;-79
2022/02/25 10:00:26;;;;;;;14.95;2.15;;;8.30;99.90;;;;;;4978554;28;20038;-78
2022/02/25 10:02:54;;;;;;;8.02;1.92;;;7.10;99.90;;;;;;4980209;28;20051;-78
2022/02/25 10:05:22;;;;;;;14.10;1.77;;;7.20;99.90;;;;;;4983513;28;20038;-78
2022/02/25 10:07:48;;;;;;;7.22;1.20;;;7.40;99.90;;;;;;4980411;28;20031;-79
2022/02/25 10:10:16;;;;;;;10.10;1.35;;;8.70;99.90;;;;;;4972040;28;20035;-79
2022/02/25 10:12:59;;;;;;;10.50;1.77;;;9.10;99.90;;;;;;4965844;28;20491;-78
2022/02/25 10:15:34;;;;;;;10.52;1.50;;;9.20;99.90;;;;;;4953925;29;20027;-79
2022/02/25 10:18:02;;;;;;;5.57;1.40;;;9.20;99.90;;;;;;4953590;29;20399;-78
2022/02/25 10:20:28;;;;;;;7.20;2.63;;;9.20;99.90;;;;;;4969528;28;20031;-79
2022/02/25 10:22:54;;;;;;;6.93;1.80;;;9.10;99.90;;;;;;4972762;28;20479;-78
2022/02/25 10:25:21;;;;;;;3.45;1.30;;;11.00;99.90;;;;;;4972817;28;20104;-79
2022/02/25 10:27:51;;;;;;;11.70;1.77;;;8.90;99.90;;;;;;4973931;28;20057;-79
2022/02/25 10:30:21;;;;;;;6.35;1.75;;;8.60;99.90;;;;;;4973418;28;20126;-79
2022/02/25 10:32:55;;;;;;;11.38;1.88;;;8.20;99.90;;;;;;4973891;28;20034;-79
2022/02/25 10:35:36;;;;;;;9.27;1.90;;;8.00;99.90;;;;;;4957360;28;20027;-79
2022/02/25 10:38:15;;;;;;;7.85;1.70;;;9.60;99.90;;;;;;4974673;28;20053;-79
2022/02/25 10:40:47;;;;;;;10.48;2.75;;;9.30;99.90;;;;;;4973347;28;20030;-78
2022/02/25 10:43:22;;;;;;;8.40;1.63;;;8.60;99.90;;;;;;4974334;28;20027;-79
2022/02/25 10:45:51;;;;;;;8.73;1.50;;;8.40;99.90;;;;;;4973568;28;20035;-79
2022/02/25 10:48:19;;;;;;;7.63;1.38;;;8.40;99.90;;;;;;4975199;28;20027;-79
2022/02/25 10:50:48;;;;;;;8.73;1.27;;;9.40;99.90;;;;;;4979012;28;20030;-79
2022/02/25 10:53:18;;;;;;;3.58;1.30;;;9.70;99.90;;;;;;4974865;28;20019;-78
2022/02/25 10:55:48;;;;;;;11.27;1.88;;;10.30;99.90;;;;;;4976535;28;20027;-79
2022/02/25 10:58:16;;;;;;;5.57;1.23;;;8.90;99.90;;;;;;4976936;28;20637;-80
2022/02/25 11:00:42;;;;;;;5.35;1.60;;;8.50;99.90;;;;;;4977783;28;20107;-79
2022/02/25 11:03:07;;;;;;;6.65;1.73;;;7.90;99.90;;;;;;4935321;29;20043;-80
2022/02/25 11:05:35;;;;;;;10.50;1.27;;;7.70;99.90;;;;;;4959257;29;20027;-79
2022/02/25 11:08:03;;;;;;;10.02;1.75;;;7.70;99.90;;;;;;4962181;28;20045;-80
2022/02/25 11:10:33;;;;;;;6.90;1.55;;;7.80;99.90;;;;;;4957442;28;20046;-79
2022/02/25 11:13:04;;;;;;;10.25;1.98;;;8.20;99.90;;;;;;4976144;28;20023;-80
2022/02/25 11:15:31;;;;;;;8.00;1.30;;;8.40;99.90;;;;;;4975641;28;20147;-80
2022/02/25 11:17:58;;;;;;;10.35;1.65;;;7.90;99.90;;;;;;4974749;28;20019;-80
2022/02/25 11:20:28;;;;;;;10.18;2.13;;;7.80;99.90;;;;;;4973198;28;20030;-80
2022/02/25 11:22:59;;;;;;;2.67;1.00;;;7.70;99.90;;;;;;4974502;28;20037;-78
2022/02/25 11:25:25;;;;;;;6.72;1.30;;;8.70;99.90;;;;;;4976634;28;20098;-78
2022/02/25 11:27:51;;;;;;;9.07;1.80;;;7.80;99.90;;;;;;4978009;28;20507;-81
2022/02/25 11:30:31;;;;;;;8.60;1.20;;;7.60;99.90;;;;;;4984060;28;20035;-81
2022/02/25 11:33:03;;;;;;;8.38;1.38;;;7.40;99.90;;;;;;4985595;28;20027;-81
2022/02/25 11:35:34;;;;;;;13.90;2.88;;;7.20;99.90;;;;;;4981820;28;20027;-81
2022/02/25 11:38:05;;;;;;;8.98;2.75;;;7.10;99.90;;;;;;4977826;28;20027;-81
2022/02/25 11:41:04;;;;;;;7.15;1.95;;;6.80;99.90;;;;;;4977074;28;20091;-82
2022/02/25 11:43:47;;;;;;;12.13;1.95;;;6.80;99.90;;;;;;4979348;28;20054;-81
2022/02/25 11:46:28;;;;;;;8.15;1.33;;;8.80;99.90;;;;;;4980363;28;20442;-80
2022/02/25 11:49:03;;;;;;;8.57;1.92;;;6.60;99.90;;;;;;4977793;28;20027;-80
2022/02/25 11:51:48;;;;;;;4.78;1.52;;;6.40;99.90;;;;;;4977217;28;20022;-80
2022/02/25 11:54:34;;;;;;;15.75;2.67;;;6.30;99.90;;;;;;4975201;28;20495;-81
2022/02/25 11:57:00;;;;;;;9.80;1.67;;;8.10;99.90;;;;;;4958745;28;20062;-82
2022/02/25 11:59:31;;;;;;;8.77;1.30;;;6.50;99.90;;;;;;4975858;28;20045;-83
2022/02/25 12:02:11;;;;;;;5.90;1.23;;;6.70;99.90;;;;;;4959165;28;20027;-82
2022/02/25 12:04:41;;;;;;;9.68;1.42;;;6.70;99.90;;;;;;4976010;28;20061;-83
2022/02/25 12:07:17;;;;;;;5.30;1.15;;;7.40;99.90;;;;;;4975799;28;20046;-82
2022/02/25 12:09:54;;;;;;;4.97;1.48;;;7.20;99.90;;;;;;4975760;28;20030;-82
2022/02/25 12:12:28;;;;;;;8.40;1.65;;;9.30;99.90;;;;;;4977491;28;20023;-81
2022/02/25 12:15:16;;;;;;;6.43;1.73;;;7.10;99.90;;;;;;4976169;28;20732;-81
2022/02/25 12:17:57;;;;;;;7.30;1.50;;;7.30;99.90;;;;;;4984656;28;20023;-82
2022/02/25 12:20:26;;;;;;;;;;;7.20;99.90;;;;;;4978522;28;20473;-82
2022/02/25 12:23:12;;;;;;;6.82;1.15;;;7.60;99.90;;;;;;4985782;28;19959;-82
2022/02/25 12:25:40;;;;;;;13.93;1.80;;;7.50;99.90;;;;;;4988172;28;20027;-82
2022/02/25 12:28:27;;;;;;;10.35;2.03;;;9.50;99.90;;;;;;4978342;28;20503;-82
2022/02/25 12:31:17;;;;;;;6.45;1.50;;;8.10;99.90;;;;;;4979442;28;20440;-83
2022/02/25 12:33:45;;;;;;;9.45;1.85;;;7.30;99.90;;;;;;4977902;28;20034;-83
2022/02/25 12:36:12;;;;;;;5.45;1.25;;;7.10;99.90;;;;;;4977936;28;20019;-83
2022/02/25 12:38:49;;;;;;;4.97;1.40;;;6.80;99.90;;;;;;4976597;28;20033;-83
2022/02/25 12:41:18;;;;;;;11.68;1.33;;;6.60;99.90;;;;;;4979520;28;20034;-82
2022/02/25 12:44:00;;;;;;;6.00;1.10;;;6.40;99.90;;;;;;4960945;28;20037;-82
2022/02/25 12:46:35;;;;;;;6.55;1.10;;;6.20;99.90;;;;;;4977938;28;20035;-81
2022/02/25 12:49:02;;;;;;;4.70;1.02;;;6.10;99.90;;;;;;4977759;28;20084;-82
2022/02/25 12:51:28;;;;;;;11.98;2.42;;;7.80;99.90;;;;;;4978184;28;20076;-82
2022/02/25 12:54:04;;;;;;;7.53;1.40;;;7.40;99.90;;;;;;4977537;28;20038;-82
2022/02/25 12:56:32;;;;;;;9.20;1.98;;;6.10;99.90;;;;;;4979274;28;20019;-83
2022/02/25 12:59:01;;;;;;;8.85;1.48;;;5.90;99.90;;;;;;4952894;28;20591;-82
2022/02/25 13:01:30;;;;;;;7.60;1.30;;;5.80;99.90;;;;;;4975182;28;20452;-82
2022/02/25 13:04:06;;;;;;;6.80;1.73;;;5.80;99.90;;;;;;4966294;28;20033;-82
2022/02/25 13:06:39;;;;;;;13.68;1.50;;;5.90;99.90;;;;;;4935818;28;20023;-83